Time;durP1;ratioP1;P1;durP2;ratioP2;P2;SDS_P1;SDS_P2;PMS_P1;PMS_P2;Temp;Humidity;BMP_temperature;BMP_pressure;BME280_temperature;BME280_humidity;BME280_pressure;Samples;Min_cycle;Max_cycle;Signal;HPM_P1;HPM_P2
2022/11/02 00:01:05;;;;;;;1.83;0.50;;;12.50;99.90;;;;;;5046812;28;20394;-82
2022/11/02 00:03:31;;;;;;;4.50;0.65;;;12.50;99.90;;;;;;5047436;28;20037;-84
2022/11/02 00:05:56;;;;;;;0.10;0.10;;;12.40;99.90;;;;;;5051754;28;20053;-83
2022/11/02 00:08:22;;;;;;;0.68;0.40;;;12.40;99.90;;;;;;5046775;28;20053;-82
2022/11/02 00:10:47;;;;;;;1.85;0.47;;;12.40;99.90;;;;;;5049672;28;20033;-82
2022/11/02 00:13:13;;;;;;;5.68;0.73;;;12.40;99.90;;;;;;5034002;28;20233;-81
2022/11/02 00:15:39;;;;;;;0.28;0.28;;;12.40;99.90;;;;;;5043808;28;20049;-81
2022/11/02 00:18:09;;;;;;;1.33;0.60;;;12.30;99.90;;;;;;5046905;28;20041;-84
2022/11/02 00:20:40;;;;;;;0.52;0.25;;;12.30;99.90;;;;;;5037867;28;20049;-82
2022/11/02 00:23:09;;;;;;;2.10;0.77;;;12.30;99.90;;;;;;5045711;28;20111;-83
2022/11/02 00:25:38;;;;;;;1.90;0.22;;;12.30;99.90;;;;;;5051178;28;20494;-84
2022/11/02 00:28:04;;;;;;;0.85;0.20;;;12.30;99.90;;;;;;5054284;28;20079;-82
2022/11/02 00:30:30;;;;;;;0.57;0.55;;;12.30;99.90;;;;;;5036843;28;20042;-82
2022/11/02 00:32:56;;;;;;;0.10;0.10;;;12.30;99.90;;;;;;5062256;28;20435;-82
2022/11/02 00:35:22;;;;;;;1.65;0.70;;;12.20;99.90;;;;;;5051478;28;20128;-82
2022/11/02 00:37:47;;;;;;;7.75;0.77;;;12.20;99.90;;;;;;5040324;28;20094;-84
2022/11/02 00:40:13;;;;;;;6.20;1.02;;;12.20;99.90;;;;;;5046951;28;20044;-86
2022/11/02 00:42:39;;;;;;;1.58;0.57;;;12.10;99.90;;;;;;5048119;28;20079;-81
2022/11/02 00:45:06;;;;;;;2.78;0.75;;;12.10;99.90;;;;;;5046475;28;20447;-81
2022/11/02 00:47:32;;;;;;;2.78;0.68;;;12.10;99.90;;;;;;5046668;28;20049;-82
2022/11/02 00:49:57;;;;;;;1.02;0.32;;;12.00;99.90;;;;;;5024947;28;20740;-83
2022/11/02 00:52:23;;;;;;;5.47;1.23;;;11.90;99.90;;;;;;5049764;28;20472;-82
2022/11/02 00:54:49;;;;;;;0.57;0.40;;;11.90;99.90;;;;;;5037678;28;20064;-82
2022/11/02 00:57:14;;;;;;;0.93;0.60;;;11.90;99.90;;;;;;5038939;28;20065;-83
2022/11/02 00:59:40;;;;;;;0.77;0.10;;;11.80;99.90;;;;;;5040826;28;20090;-82
2022/11/02 01:02:06;;;;;;;2.72;0.77;;;11.80;99.90;;;;;;5062185;28;20049;-82
2022/11/02 01:04:31;;;;;;;3.08;0.30;;;11.90;99.90;;;;;;5029271;28;20453;-81
2022/11/02 01:06:57;;;;;;;4.43;0.95;;;11.90;99.90;;;;;;5041411;28;20049;-82
2022/11/02 01:09:23;;;;;;;6.20;0.50;;;11.90;99.90;;;;;;5033420;28;20041;-81
2022/11/02 01:11:49;;;;;;;0.60;0.50;;;11.90;99.90;;;;;;5045906;28;20388;-83
2022/11/02 01:14:14;;;;;;;6.38;1.45;;;11.90;99.90;;;;;;5053753;28;20049;-82
2022/11/02 01:16:40;;;;;;;1.10;0.45;;;11.90;99.90;;;;;;5051693;28;20169;-85
2022/11/02 01:19:06;;;;;;;4.68;0.50;;;11.90;99.90;;;;;;5048350;28;20052;-85
2022/11/02 01:21:32;;;;;;;1.50;0.35;;;11.80;99.90;;;;;;5049368;28;20062;-82
2022/11/02 01:23:57;;;;;;;0.30;0.25;;;11.80;99.90;;;;;;5048944;28;20116;-81
2022/11/02 01:26:23;;;;;;;1.23;0.68;;;11.80;99.90;;;;;;5049545;28;20476;-83
2022/11/02 01:28:51;;;;;;;3.53;0.82;;;11.80;99.90;;;;;;5064850;28;20053;-87
2022/11/02 01:31:17;;;;;;;1.75;0.60;;;11.80;99.90;;;;;;5047349;28;20092;-81
2022/11/02 01:33:46;;;;;;;2.47;0.65;;;11.70;99.90;;;;;;5046338;28;20089;-82
2022/11/02 01:36:15;;;;;;;0.88;0.47;;;11.70;99.90;;;;;;5049670;28;20512;-82
2022/11/02 01:38:41;;;;;;;8.77;0.50;;;11.70;99.90;;;;;;5052861;28;20411;-84
2022/11/02 01:41:08;;;;;;;0.95;0.38;;;11.70;99.90;;;;;;5040851;28;20049;-82
2022/11/02 01:43:35;;;;;;;3.03;0.95;;;11.70;99.90;;;;;;5048115;28;20076;-81
2022/11/02 01:46:15;;;;;;;2.53;0.75;;;11.70;99.90;;;;;;5048685;28;20045;-81
2022/11/02 01:48:44;;;;;;;2.35;0.70;;;11.70;99.90;;;;;;5044819;28;20042;-81
2022/11/02 01:51:23;;;;;;;1.38;0.40;;;11.70;99.90;;;;;;5046284;28;20055;-81
2022/11/02 01:53:51;;;;;;;7.05;0.75;;;11.70;99.90;;;;;;5043469;28;20049;-81
2022/11/02 01:56:20;;;;;;;2.88;0.75;;;11.70;99.90;;;;;;5052310;28;20048;-84
2022/11/02 01:58:50;;;;;;;7.88;0.75;;;11.70;99.90;;;;;;5063444;28;20045;-81
2022/11/02 02:01:16;;;;;;;2.55;1.08;;;11.70;99.90;;;;;;5047217;28;20037;-82
2022/11/02 02:03:43;;;;;;;5.70;0.75;;;11.70;99.90;;;;;;5042400;28;20063;-81
2022/11/02 02:06:12;;;;;;;3.38;0.60;;;11.70;99.90;;;;;;5049046;28;20045;-81
2022/11/02 02:08:42;;;;;;;3.22;1.02;;;11.80;99.90;;;;;;5048454;28;20127;-82
2022/11/02 02:11:40;;;;;;;1.40;0.82;;;11.80;99.90;;;;;;5047758;28;20073;-82
2022/11/02 02:14:15;;;;;;;3.85;0.40;;;11.80;99.90;;;;;;5033491;28;20089;-83
2022/11/02 02:17:05;;;;;;;6.55;1.23;;;11.90;99.90;;;;;;5051909;28;20049;-83
2022/11/02 02:19:50;;;;;;;6.57;0.70;;;12.00;99.90;;;;;;5047865;28;20037;-84
2022/11/02 02:22:45;;;;;;;2.33;0.73;;;12.00;99.90;;;;;;5066037;28;20052;-83
2022/11/02 02:25:32;;;;;;;0.65;0.22;;;12.00;99.90;;;;;;5046398;28;20102;-82
2022/11/02 02:28:18;;;;;;;2.40;0.60;;;11.90;99.90;;;;;;5059151;28;20044;-83
2022/11/02 02:30:59;;;;;;;3.20;0.98;;;11.80;99.90;;;;;;5046029;28;20484;-82
2022/11/02 02:34:02;;;;;;;10.68;0.60;;;11.70;99.90;;;;;;5044092;28;20103;-82
2022/11/02 02:36:39;;;;;;;2.30;0.50;;;11.70;99.90;;;;;;5046014;28;20124;-81
2022/11/02 02:39:09;;;;;;;1.15;0.30;;;11.60;99.90;;;;;;5056036;28;20102;-82
2022/11/02 02:41:46;;;;;;;0.30;0.30;;;11.50;99.90;;;;;;5046292;28;20053;-82
2022/11/02 02:44:17;;;;;;;1.67;0.60;;;11.50;99.90;;;;;;5048053;28;20041;-82
2022/11/02 02:46:50;;;;;;;0.50;0.28;;;11.50;99.90;;;;;;5061372;28;20052;-84
2022/11/02 02:49:21;;;;;;;2.78;0.40;;;11.50;99.90;;;;;;5047519;28;20396;-82
2022/11/02 02:51:48;;;;;;;2.47;1.05;;;11.50;99.90;;;;;;5049376;28;20165;-82
2022/11/02 02:54:29;;;;;;;1.65;0.75;;;11.50;99.90;;;;;;5046119;28;20088;-83
2022/11/02 02:57:06;;;;;;;1.30;0.40;;;11.50;99.90;;;;;;5049631;28;20052;-82
2022/11/02 02:59:47;;;;;;;4.47;0.40;;;11.50;99.90;;;;;;5050997;28;20080;-82
2022/11/02 03:02:24;;;;;;;1.08;0.47;;;11.50;99.90;;;;;;5062190;28;20041;-82
2022/11/02 03:04:50;;;;;;;2.83;0.73;;;11.40;99.90;;;;;;5045396;28;20479;-82
2022/11/02 03:07:21;;;;;;;3.65;0.17;;;11.50;99.90;;;;;;5056612;28;20124;-82
2022/11/02 03:09:53;;;;;;;0.20;0.20;;;11.30;99.90;;;;;;5044369;28;20048;-84
2022/11/02 03:12:21;;;;;;;4.97;0.40;;;11.30;99.90;;;;;;5040926;28;20436;-82
2022/11/02 03:15:10;;;;;;;0.20;0.20;;;11.20;99.90;;;;;;5047312;28;20054;-81
2022/11/02 03:17:51;;;;;;;2.05;0.10;;;11.10;99.90;;;;;;5049890;28;20498;-85
2022/11/02 03:20:22;;;;;;;2.73;0.40;;;11.00;99.90;;;;;;5053287;28;20769;-85
2022/11/02 03:23:22;;;;;;;1.13;0.37;;;10.90;99.90;;;;;;5031673;28;20483;-81
2022/11/02 03:26:06;;;;;;;0.03;0.03;;;10.90;99.90;;;;;;5046638;28;20358;-82
2022/11/02 03:28:34;;;;;;;1.45;0.75;;;10.80;99.90;;;;;;5045291;28;20541;-82
2022/11/02 03:31:31;;;;;;;3.95;0.10;;;10.80;99.90;;;;;;5045887;28;20395;-82
2022/11/02 03:34:10;;;;;;;0.03;0.03;;;10.70;99.90;;;;;;5037483;28;20053;-83
2022/11/02 03:36:41;;;;;;;0.05;0.05;;;10.60;99.90;;;;;;5039047;28;20056;-84
2022/11/02 03:39:10;;;;;;;2.72;1.25;;;10.60;99.90;;;;;;5044795;28;20060;-81
2022/11/02 03:41:39;;;;;;;1.45;0.22;;;10.60;99.90;;;;;;5046526;28;20106;-83
2022/11/02 03:44:15;;;;;;;0.10;0.10;;;10.60;99.90;;;;;;5048703;28;20117;-83
2022/11/02 03:46:43;;;;;;;5.03;0.40;;;10.60;99.90;;;;;;5039338;28;20048;-85
2022/11/02 03:49:15;;;;;;;1.70;0.85;;;10.50;99.90;;;;;;5048249;28;20045;-81
2022/11/02 03:51:43;;;;;;;0.98;0.70;;;10.50;99.90;;;;;;5046738;28;20487;-84
2022/11/02 03:54:24;;;;;;;0.98;0.98;;;10.50;99.90;;;;;;5029116;28;20103;-82
2022/11/02 03:56:55;;;;;;;0.98;0.32;;;10.50;99.90;;;;;;5044837;28;20049;-83
2022/11/02 03:59:21;;;;;;;1.65;0.63;;;10.50;99.90;;;;;;5036033;28;20480;-82
2022/11/02 04:01:49;;;;;;;5.57;0.47;;;10.50;99.90;;;;;;5040563;28;20045;-83
2022/11/02 04:04:16;;;;;;;5.75;0.50;;;10.50;99.90;;;;;;5058386;28;20127;-82
2022/11/02 04:06:43;;;;;;;3.75;0.52;;;10.50;99.90;;;;;;5044103;28;20057;-81
2022/11/02 04:09:09;;;;;;;0.20;0.20;;;10.50;99.90;;;;;;5041179;28;20046;-82
2022/11/02 04:14:38;;;;;;;4.38;0.32;;;10.50;99.90;;;;;;5046902;28;20210;-84
2022/11/02 04:19:49;;;;;;;0.50;0.20;;;10.50;99.90;;;;;;5043472;28;20045;-82
2022/11/02 04:25:14;;;;;;;0.43;0.22;;;10.60;99.90;;;;;;5058600;28;20064;-82
2022/11/02 04:27:41;;;;;;;0.20;0.20;;;10.60;99.90;;;;;;5031941;28;20037;-81
2022/11/02 04:30:07;;;;;;;0.28;0.20;;;10.70;99.90;;;;;;5048427;28;20454;-85
2022/11/02 04:35:25;;;;;;;1.00;0.38;;;10.80;99.90;;;;;;5055133;28;20076;-81
2022/11/02 04:40:35;;;;;;;0.80;0.50;;;10.80;99.90;;;;;;5065313;28;20126;-81
2022/11/02 04:43:01;;;;;;;1.85;0.85;;;10.80;99.90;;;;;;5048776;28;20045;-82
2022/11/02 04:45:26;;;;;;;0.47;0.40;;;10.90;99.90;;;;;;5042536;28;20049;-81
2022/11/02 04:47:52;;;;;;;1.88;0.35;;;10.90;99.90;;;;;;5032667;28;20053;-82
2022/11/02 04:50:18;;;;;;;3.40;0.40;;;10.90;99.90;;;;;;5056607;28;20041;-81
2022/11/02 04:52:44;;;;;;;2.55;0.40;;;10.90;99.90;;;;;;5048868;28;20175;-85
2022/11/02 04:55:09;;;;;;;1.30;0.20;;;10.90;99.90;;;;;;5039233;28;20072;-82
2022/11/02 04:57:35;;;;;;;3.88;0.85;;;10.90;99.90;;;;;;5044669;28;20041;-83
2022/11/02 05:00:01;;;;;;;0.28;0.22;;;10.90;99.90;;;;;;5029885;28;20047;-84
2022/11/02 05:02:26;;;;;;;0.65;0.38;;;10.90;99.90;;;;;;5041216;28;20044;-83
2022/11/02 05:04:52;;;;;;;0.65;0.65;;;10.90;99.90;;;;;;5046101;28;20063;-83
2022/11/02 05:07:18;;;;;;;1.63;0.30;;;10.90;99.90;;;;;;5040686;28;20052;-83
2022/11/02 05:09:43;;;;;;;5.68;0.75;;;10.90;99.90;;;;;;5046765;28;20041;-84
2022/11/02 05:12:09;;;;;;;16.05;0.68;;;10.90;99.90;;;;;;5024574;28;20094;-82
2022/11/02 05:14:35;;;;;;;0.55;0.22;;;10.90;99.90;;;;;;5046725;28;20040;-81
2022/11/02 05:17:01;;;;;;;2.72;0.43;;;10.90;99.90;;;;;;5046546;28;20131;-81
2022/11/02 05:19:26;;;;;;;1.00;0.20;;;10.90;99.90;;;;;;5042515;28;20037;-84
2022/11/02 05:21:52;;;;;;;1.92;0.55;;;10.90;99.90;;;;;;5045089;28;20495;-82
2022/11/02 05:24:18;;;;;;;2.30;0.55;;;11.00;99.90;;;;;;5044064;28;20040;-81
2022/11/02 05:26:43;;;;;;;2.83;0.68;;;11.00;99.90;;;;;;5041563;28;20095;-81
2022/11/02 05:29:09;;;;;;;0.28;0.28;;;11.00;99.90;;;;;;5044070;28;20103;-85
2022/11/02 05:31:35;;;;;;;10.85;0.90;;;11.00;99.90;;;;;;5031409;28;20053;-85
2022/11/02 05:34:03;;;;;;;4.85;0.63;;;11.00;99.90;;;;;;5038477;28;20048;-84
2022/11/02 05:36:28;;;;;;;5.22;0.40;;;11.00;99.90;;;;;;5043575;28;20053;-83
2022/11/02 05:38:54;;;;;;;1.50;0.93;;;10.90;99.90;;;;;;5027746;28;20495;-82
2022/11/02 05:41:21;;;;;;;1.08;0.45;;;10.90;99.90;;;;;;5047688;28;20041;-82
2022/11/02 05:43:46;;;;;;;0.75;0.47;;;10.90;99.90;;;;;;5042135;28;20388;-82
2022/11/02 05:46:15;;;;;;;1.83;0.68;;;10.90;99.90;;;;;;5044066;28;20041;-81
2022/11/02 05:48:41;;;;;;;4.50;0.95;;;10.80;99.90;;;;;;5046910;28;20538;-83
2022/11/02 05:51:08;;;;;;;2.00;0.88;;;10.80;99.90;;;;;;5037647;28;20037;-84
2022/11/02 05:53:37;;;;;;;6.07;0.98;;;10.80;99.90;;;;;;5033927;28;20041;-82
2022/11/02 05:56:06;;;;;;;11.65;1.50;;;10.80;99.90;;;;;;5036719;28;20110;-83
2022/11/02 05:58:32;;;;;;;1.52;0.63;;;10.80;99.90;;;;;;5055758;28;20048;-81
2022/11/02 06:00:59;;;;;;;5.93;2.38;;;10.80;99.90;;;;;;5048533;28;20033;-82
2022/11/02 06:03:24;;;;;;;6.88;0.70;;;10.80;99.90;;;;;;5032954;28;20045;-83
2022/11/02 06:06:01;;;;;;;5.63;1.00;;;10.80;99.90;;;;;;5042387;28;20102;-82
2022/11/02 06:08:27;;;;;;;1.90;0.73;;;10.80;99.90;;;;;;5048645;28;20074;-82
2022/11/02 06:10:53;;;;;;;5.88;1.20;;;10.70;99.90;;;;;;5047808;28;20041;-82
2022/11/02 06:13:19;;;;;;;4.20;1.52;;;10.70;99.90;;;;;;5015772;28;20053;-82
2022/11/02 06:15:45;;;;;;;1.25;0.30;;;10.70;99.90;;;;;;5051418;28;20049;-84
2022/11/02 06:18:11;;;;;;;4.40;1.20;;;10.80;99.90;;;;;;5050755;28;20542;-87
2022/11/02 06:20:39;;;;;;;0.57;0.40;;;10.70;99.90;;;;;;5051321;28;20693;-82
2022/11/02 06:23:05;;;;;;;6.60;1.30;;;10.80;99.90;;;;;;5044850;28;20060;-84
2022/11/02 06:25:30;;;;;;;0.45;0.30;;;10.80;99.90;;;;;;5051468;28;20507;-83
2022/11/02 06:27:56;;;;;;;1.75;0.73;;;10.80;99.90;;;;;;5042767;28;20466;-84
2022/11/02 06:30:23;;;;;;;4.00;1.30;;;10.80;99.90;;;;;;5048849;28;20037;-84
2022/11/02 06:32:50;;;;;;;6.38;1.42;;;10.80;99.90;;;;;;5046967;28;20089;-83
2022/11/02 06:35:17;;;;;;;3.05;0.77;;;10.80;99.90;;;;;;5024533;28;20102;-83
2022/11/02 06:37:44;;;;;;;8.98;1.63;;;10.80;99.90;;;;;;5047054;28;20469;-83
2022/11/02 06:40:11;;;;;;;4.60;0.68;;;10.80;99.90;;;;;;5060325;28;20132;-83
2022/11/02 06:42:36;;;;;;;5.28;0.55;;;10.80;99.90;;;;;;5048073;28;20080;-85
2022/11/02 06:45:03;;;;;;;1.52;0.45;;;10.80;99.90;;;;;;5046428;28;20080;-83
2022/11/02 06:47:33;;;;;;;4.75;0.45;;;10.70;99.90;;;;;;5016406;28;20077;-82
2022/11/02 06:49:59;;;;;;;2.50;0.47;;;10.70;99.90;;;;;;5034483;28;20053;-83
2022/11/02 06:52:26;;;;;;;7.70;0.55;;;10.70;99.90;;;;;;5037022;28;20048;-82
2022/11/02 06:54:52;;;;;;;1.08;0.25;;;10.60;99.90;;;;;;5033655;28;20060;-82
2022/11/02 06:57:18;;;;;;;2.13;0.75;;;10.60;99.90;;;;;;5033656;28;20388;-82
2022/11/02 06:59:44;;;;;;;0.60;0.35;;;10.50;99.90;;;;;;5034543;28;20103;-82
2022/11/02 07:02:09;;;;;;;0.50;0.50;;;10.50;99.90;;;;;;5050072;28;20054;-83
2022/11/02 07:04:35;;;;;;;14.35;0.77;;;10.50;99.90;;;;;;5033264;28;20045;-82
2022/11/02 07:07:01;;;;;;;0.90;0.90;;;10.50;99.90;;;;;;5049139;28;20060;-82
2022/11/02 07:09:26;;;;;;;1.88;0.82;;;10.50;99.90;;;;;;5066715;28;20046;-81
2022/11/02 07:11:52;;;;;;;0.52;0.45;;;10.50;99.90;;;;;;5034297;28;20516;-82
2022/11/02 07:14:18;;;;;;;3.55;0.70;;;10.60;99.90;;;;;;5052847;28;20048;-81
2022/11/02 07:16:43;;;;;;;5.82;0.55;;;10.70;99.90;;;;;;5054219;28;20045;-85
2022/11/02 07:19:09;;;;;;;1.08;0.32;;;10.80;99.90;;;;;;5053064;28;20048;-82
2022/11/02 07:21:34;;;;;;;8.63;1.05;;;10.80;99.90;;;;;;5053343;28;20080;-83
2022/11/02 07:24:03;;;;;;;3.60;1.17;;;10.90;99.90;;;;;;5051170;28;20049;-82
2022/11/02 07:26:29;;;;;;;5.72;0.98;;;11.00;99.90;;;;;;5036537;28;20095;-81
2022/11/02 07:28:54;;;;;;;2.40;0.65;;;11.00;99.90;;;;;;5052803;28;20052;-81
2022/11/02 07:31:20;;;;;;;12.95;0.80;;;11.10;99.90;;;;;;5053046;28;20041;-82
2022/11/02 07:33:46;;;;;;;6.93;0.55;;;11.10;99.90;;;;;;5052609;28;20048;-84
2022/11/02 07:36:12;;;;;;;3.08;0.60;;;11.20;99.90;;;;;;5053541;28;20495;-82
2022/11/02 07:38:37;;;;;;;1.85;0.40;;;11.20;99.90;;;;;;5052892;28;20107;-83
2022/11/02 07:41:03;;;;;;;6.60;0.88;;;11.40;99.90;;;;;;5052776;28;20042;-83
2022/11/02 07:43:29;;;;;;;1.02;0.38;;;11.40;99.90;;;;;;5053700;28;20131;-82
2022/11/02 07:45:55;;;;;;;0.82;0.52;;;11.50;99.90;;;;;;5048308;28;20136;-84
2022/11/02 07:48:21;;;;;;;3.45;0.90;;;11.60;99.90;;;;;;5041257;28;20096;-83
2022/11/02 07:50:46;;;;;;;3.70;0.45;;;11.50;99.90;;;;;;5055492;28;20037;-83
2022/11/02 07:53:12;;;;;;;0.73;0.28;;;11.50;99.90;;;;;;5055371;28;20052;-83
2022/11/02 07:55:38;;;;;;;4.47;0.68;;;11.50;99.90;;;;;;5041101;28;20045;-82
2022/11/02 07:58:07;;;;;;;1.20;0.70;;;11.50;99.90;;;;;;5057767;28;20045;-82
2022/11/02 08:00:38;;;;;;;7.57;0.75;;;11.60;99.90;;;;;;5056261;28;20048;-82
2022/11/02 08:03:05;;;;;;;3.83;0.65;;;11.60;99.90;;;;;;5054711;28;20088;-82
2022/11/02 08:05:33;;;;;;;5.15;0.60;;;11.60;99.90;;;;;;5053710;28;20391;-83
2022/11/02 08:08:24;;;;;;;5.22;0.40;;;11.70;99.90;;;;;;5052056;28;20156;-83
2022/11/02 08:10:51;;;;;;;6.25;0.32;;;11.70;99.90;;;;;;5051910;28;20095;-83
2022/11/02 08:13:22;;;;;;;7.75;0.70;;;11.70;99.90;;;;;;5053238;28;20060;-83
2022/11/02 08:15:52;;;;;;;6.13;0.40;;;11.60;99.90;;;;;;5052075;28;20480;-83
2022/11/02 08:18:23;;;;;;;8.32;1.10;;;11.60;99.90;;;;;;5035521;28;20076;-82
2022/11/02 08:20:49;;;;;;;4.40;0.70;;;11.60;99.90;;;;;;5032264;28;20048;-82
2022/11/02 08:23:17;;;;;;;0.73;0.40;;;11.60;99.90;;;;;;5031976;28;20049;-81
2022/11/02 08:25:44;;;;;;;2.72;0.50;;;11.60;99.90;;;;;;5015442;28;20096;-83
2022/11/02 08:28:19;;;;;;;3.45;0.73;;;11.60;99.90;;;;;;5043914;28;20041;-82
2022/11/02 08:30:45;;;;;;;2.78;0.47;;;11.70;99.90;;;;;;5051591;28;20056;-83
2022/11/02 08:33:14;;;;;;;4.13;0.73;;;11.60;99.90;;;;;;5052070;28;20489;-85
2022/11/02 08:35:41;;;;;;;3.70;0.70;;;11.60;99.90;;;;;;5052880;28;20115;-82
2022/11/02 08:38:08;;;;;;;2.92;0.43;;;11.70;99.90;;;;;;5052042;28;20112;-82
2022/11/02 08:40:37;;;;;;;1.15;0.40;;;11.70;99.90;;;;;;5035283;28;20089;-83
2022/11/02 08:43:14;;;;;;;3.92;0.50;;;11.70;99.90;;;;;;5056096;28;20060;-82
2022/11/02 08:45:42;;;;;;;1.55;0.52;;;11.70;99.90;;;;;;5061924;28;20048;-81
2022/11/02 08:48:08;;;;;;;5.57;1.00;;;11.80;99.90;;;;;;5043916;28;20045;-83
2022/11/02 08:50:34;;;;;;;0.52;0.38;;;11.80;99.90;;;;;;5078386;28;20044;-82
2022/11/02 08:53:00;;;;;;;0.32;0.32;;;11.90;99.90;;;;;;5053135;28;20045;-82
2022/11/02 08:55:26;;;;;;;0.65;0.32;;;11.90;99.90;;;;;;5067986;28;20051;-82
2022/11/02 08:57:56;;;;;;;0.45;0.20;;;12.00;99.90;;;;;;5053022;28;20045;-82
2022/11/02 09:00:24;;;;;;;3.53;0.82;;;12.00;99.90;;;;;;5051100;28;20120;-85
2022/11/02 09:03:08;;;;;;;1.17;0.60;;;12.00;99.90;;;;;;5051470;28;20435;-82
2022/11/02 09:05:45;;;;;;;2.22;1.27;;;12.10;99.90;;;;;;5051491;28;20064;-81
2022/11/02 09:08:18;;;;;;;5.57;0.50;;;12.30;99.90;;;;;;5052542;28;20120;-82
2022/11/02 09:10:48;;;;;;;4.20;0.45;;;12.50;99.90;;;;;;5034054;28;20182;-83
2022/11/02 09:13:17;;;;;;;1.85;0.52;;;12.60;99.90;;;;;;5051449;28;20056;-83
2022/11/02 09:15:42;;;;;;;1.13;0.43;;;12.60;99.90;;;;;;5052219;28;20048;-82
2022/11/02 09:18:09;;;;;;;2.92;0.55;;;12.60;99.90;;;;;;5051232;28;20128;-82
2022/11/02 09:20:35;;;;;;;6.82;1.02;;;12.70;99.90;;;;;;5046294;28;20513;-82
2022/11/02 09:23:01;;;;;;;5.35;0.85;;;12.80;99.90;;;;;;5060699;28;20050;-83
2022/11/02 09:25:26;;;;;;;10.75;0.85;;;12.90;99.90;;;;;;5053331;28;20041;-81
2022/11/02 09:27:54;;;;;;;0.95;0.52;;;13.20;99.90;;;;;;5052206;28;20056;-83
2022/11/02 09:30:20;;;;;;;10.63;0.70;;;13.60;99.90;;;;;;5051173;28;20388;-82
2022/11/02 09:32:53;;;;;;;7.57;1.42;;;13.60;99.90;;;;;;5035980;28;20492;-82
2022/11/02 09:35:19;;;;;;;4.70;1.13;;;13.80;99.90;;;;;;5034811;28;20087;-83
2022/11/02 09:37:45;;;;;;;2.13;0.22;;;14.20;99.90;;;;;;5051545;28;20127;-83
2022/11/02 09:40:12;;;;;;;0.10;0.10;;;14.30;99.90;;;;;;5051831;28;20601;-83
2022/11/02 09:43:31;;;;;;;2.65;0.60;;;14.10;99.90;;;;;;5051652;28;20440;-82
2022/11/02 09:45:59;;;;;;;1.25;0.30;;;14.00;99.90;;;;;;5017131;28;20488;-83
2022/11/02 09:48:30;;;;;;;3.70;0.77;;;13.90;99.90;;;;;;5046760;28;20156;-82
2022/11/02 09:51:03;;;;;;;4.13;0.33;;;13.80;99.90;;;;;;5071401;28;20048;-83
2022/11/02 09:54:14;;;;;;;1.17;0.50;;;13.70;99.90;;;;;;5071476;28;20339;-83
2022/11/02 09:56:41;;;;;;;3.13;0.47;;;13.60;99.90;;;;;;5016538;28;20085;-82
2022/11/02 09:59:15;;;;;;;7.13;0.73;;;13.50;99.90;;;;;;5055757;28;20123;-82
2022/11/02 10:01:47;;;;;;;3.97;0.77;;;13.40;99.90;;;;;;5055221;28;20247;-82
2022/11/02 10:04:18;;;;;;;5.20;0.38;;;13.40;99.90;;;;;;5037850;28;20049;-82
2022/11/02 10:06:55;;;;;;;1.58;0.75;;;13.40;99.90;;;;;;5055582;28;20106;-82
2022/11/02 10:09:34;;;;;;;12.77;1.17;;;13.40;99.90;;;;;;5054323;28;20486;-81
2022/11/02 10:12:11;;;;;;;0.47;0.30;;;13.40;99.90;;;;;;5071036;28;20081;-82
2022/11/02 10:14:40;;;;;;;1.00;0.25;;;13.50;99.90;;;;;;5053431;28;20056;-81
2022/11/02 10:17:26;;;;;;;5.00;0.50;;;13.50;99.90;;;;;;5055055;28;20400;-82
2022/11/02 10:19:55;;;;;;;3.85;0.50;;;13.50;99.90;;;;;;5053866;28;20124;-84
2022/11/02 10:22:26;;;;;;;4.57;0.47;;;13.50;99.90;;;;;;5034360;28;20045;-82
2022/11/02 10:24:55;;;;;;;2.42;0.77;;;13.40;99.90;;;;;;5035654;28;20119;-82
2022/11/02 10:27:28;;;;;;;7.43;0.93;;;13.30;99.90;;;;;;5054124;28;20041;-83
2022/11/02 10:30:12;;;;;;;0.57;0.52;;;13.30;99.90;;;;;;5055003;28;20048;-81
2022/11/02 10:32:39;;;;;;;2.70;0.40;;;13.30;99.90;;;;;;5055337;28;20484;-82
2022/11/02 10:35:19;;;;;;;1.17;0.50;;;13.30;99.90;;;;;;5055081;28;20167;-83
2022/11/02 10:37:55;;;;;;;9.05;0.75;;;13.30;99.90;;;;;;5053742;28;20057;-83
2022/11/02 10:41:10;;;;;;;0.28;0.28;;;13.30;99.90;;;;;;5034321;28;20404;-82
2022/11/02 10:43:42;;;;;;;2.90;0.40;;;13.40;99.90;;;;;;5035027;28;20140;-84
2022/11/02 10:46:37;;;;;;;4.13;0.47;;;13.30;99.90;;;;;;5034134;28;20051;-82
2022/11/02 10:49:21;;;;;;;3.50;0.75;;;13.40;99.90;;;;;;5042987;28;20102;-82
2022/11/02 10:51:47;;;;;;;4.30;0.73;;;13.40;99.90;;;;;;5053966;28;20430;-82
2022/11/02 10:54:14;;;;;;;2.15;0.25;;;13.50;99.90;;;;;;5053751;28;20075;-83
2022/11/02 10:56:41;;;;;;;5.88;0.52;;;13.50;99.90;;;;;;5054860;28;20119;-83
2022/11/02 10:59:14;;;;;;;6.88;0.80;;;13.60;99.90;;;;;;5064821;28;20387;-83
2022/11/02 11:01:47;;;;;;;0.10;0.10;;;13.70;99.90;;;;;;5050168;28;20089;-81
2022/11/02 11:04:29;;;;;;;;;;;13.80;99.90;;;;;;5035059;28;20133;-83
2022/11/02 11:06:56;;;;;;;2.40;0.30;;;13.80;99.90;;;;;;5050232;28;19921;-82
2022/11/02 11:09:29;;;;;;;4.38;0.30;;;13.90;99.90;;;;;;5036368;28;20049;-84
2022/11/02 11:12:05;;;;;;;1.25;0.22;;;13.90;99.90;;;;;;5070030;28;20053;-83
2022/11/02 11:14:51;;;;;;;3.60;0.82;;;14.00;99.90;;;;;;5054466;28;20114;-83
2022/11/02 11:17:20;;;;;;;0.73;0.32;;;14.00;99.90;;;;;;5070293;28;20048;-81
2022/11/02 11:19:49;;;;;;;1.02;0.30;;;13.90;99.90;;;;;;5054010;28;20045;-84
2022/11/02 11:22:34;;;;;;;0.40;0.40;;;13.90;99.90;;;;;;5054184;28;20052;-83
2022/11/02 11:25:11;;;;;;;0.43;0.22;;;13.90;99.90;;;;;;5053960;28;20503;-82
2022/11/02 11:27:47;;;;;;;12.77;1.45;;;14.00;99.90;;;;;;5036543;28;20088;-83
2022/11/02 11:30:37;;;;;;;1.65;0.57;;;14.10;99.90;;;;;;5051115;28;20377;-83
2022/11/02 11:33:05;;;;;;;4.72;0.65;;;14.20;99.90;;;;;;5049643;28;20045;-82
2022/11/02 11:35:33;;;;;;;4.35;0.57;;;14.30;99.90;;;;;;5033588;28;20144;-82
2022/11/02 11:38:07;;;;;;;2.30;0.22;;;14.30;99.90;;;;;;5034001;28;20063;-83
2022/11/02 11:40:45;;;;;;;0.65;0.10;;;14.30;99.90;;;;;;5032773;28;20053;-83
2022/11/02 11:43:16;;;;;;;0.47;0.20;;;14.30;99.90;;;;;;5032676;28;20136;-82
2022/11/02 11:46:12;;;;;;;5.10;0.85;;;14.20;99.90;;;;;;5065609;28;20489;-82
2022/11/02 11:48:48;;;;;;;4.40;0.40;;;14.20;99.90;;;;;;5033838;28;20053;-83
2022/11/02 11:51:35;;;;;;;1.85;0.38;;;14.30;99.90;;;;;;5051399;28;20079;-83
2022/11/02 11:54:27;;;;;;;3.28;0.50;;;14.30;99.90;;;;;;5053171;28;20146;-82
2022/11/02 11:57:16;;;;;;;1.98;0.32;;;14.30;99.90;;;;;;5052350;28;20052;-84
2022/11/02 11:59:42;;;;;;;1.10;0.40;;;14.30;99.90;;;;;;5052538;28;20492;-82
2022/11/02 12:02:41;;;;;;;1.55;0.28;;;14.20;99.90;;;;;;5051609;28;20060;-83
2022/11/02 12:05:06;;;;;;;0.77;0.35;;;14.10;99.90;;;;;;5051854;28;20080;-83
2022/11/02 12:07:42;;;;;;;0.68;0.40;;;14.10;99.90;;;;;;5052291;28;20476;-81
2022/11/02 12:10:38;;;;;;;1.52;0.17;;;14.00;99.90;;;;;;5052113;28;20439;-82
2022/11/02 12:13:26;;;;;;;0.57;0.50;;;13.90;99.90;;;;;;5051843;28;20041;-84
2022/11/02 12:16:12;;;;;;;0.35;0.30;;;14.00;99.90;;;;;;5052072;28;20388;-82
2022/11/02 12:19:14;;;;;;;2.50;0.43;;;14.10;99.90;;;;;;5035874;28;20072;-82
2022/11/02 12:21:46;;;;;;;0.55;0.10;;;14.30;99.90;;;;;;5052254;28;20496;-82
2022/11/02 12:24:39;;;;;;;1.55;0.20;;;14.50;99.90;;;;;;5049974;28;20045;-85
2022/11/02 12:27:40;;;;;;;1.85;0.68;;;14.80;99.90;;;;;;5052742;28;20096;-82
2022/11/02 12:30:14;;;;;;;6.10;1.52;;;15.00;99.90;;;;;;5052739;28;20048;-82
2022/11/02 12:33:18;;;;;;;5.82;0.75;;;15.10;99.90;;;;;;5051388;28;20099;-82
2022/11/02 12:35:59;;;;;;;0.47;0.30;;;15.20;99.90;;;;;;5047758;28;20053;-82
2022/11/02 12:38:43;;;;;;;2.85;0.43;;;15.10;99.90;;;;;;5033042;28;20385;-83
2022/11/02 12:41:27;;;;;;;0.32;0.30;;;15.00;99.90;;;;;;5041836;28;20060;-83
2022/11/02 12:44:03;;;;;;;2.95;0.30;;;14.90;99.90;;;;;;5040459;28;20131;-84
2022/11/02 12:46:54;;;;;;;2.80;0.45;;;14.80;99.90;;;;;;5052824;28;20057;-83
2022/11/02 12:49:32;;;;;;;5.47;0.82;;;14.70;99.90;;;;;;5037563;28;20041;-82
2022/11/02 12:52:06;;;;;;;2.25;0.40;;;14.40;99.90;;;;;;5047312;28;20041;-82
2022/11/02 12:54:48;;;;;;;1.00;0.32;;;14.20;99.90;;;;;;5041358;28;20056;-85
2022/11/02 12:57:19;;;;;;;0.35;0.20;;;14.10;99.90;;;;;;5058704;28;20037;-85
2022/11/02 12:59:48;;;;;;;2.97;0.47;;;14.00;99.90;;;;;;5070608;28;20053;-84
2022/11/02 13:02:23;;;;;;;1.45;0.45;;;14.10;99.90;;;;;;5056322;28;20045;-82
2022/11/02 13:05:10;;;;;;;1.15;0.50;;;14.30;99.90;;;;;;5050526;28;20071;-82
2022/11/02 13:07:40;;;;;;;0.55;0.20;;;14.50;99.90;;;;;;5051614;28;20064;-82
2022/11/02 13:10:17;;;;;;;7.00;0.93;;;14.70;99.90;;;;;;5052333;28;20095;-82
2022/11/02 13:12:44;;;;;;;3.67;0.75;;;14.80;99.90;;;;;;5051151;28;20392;-82
2022/11/02 13:15:19;;;;;;;1.60;0.40;;;14.90;99.90;;;;;;5051678;28;20040;-83
2022/11/02 13:18:00;;;;;;;1.75;0.43;;;14.90;99.90;;;;;;5052395;28;20060;-84
2022/11/02 13:20:36;;;;;;;0.43;0.40;;;14.90;99.90;;;;;;5059795;28;20040;-83
2022/11/02 13:23:14;;;;;;;2.53;0.93;;;14.90;99.90;;;;;;5071516;28;20384;-81
2022/11/02 13:25:47;;;;;;;3.03;0.52;;;14.90;99.90;;;;;;5071289;28;20127;-83